createdAt,value
2019-05-05T00:02:20.233Z,13.85
2019-05-05T00:05:08.430Z,13.80
2019-05-05T00:07:36.944Z,13.78
2019-05-05T00:10:09.642Z,13.64
2019-05-05T00:12:56.518Z,13.46
2019-05-05T00:15:44.990Z,13.46
2019-05-05T00:18:15.445Z,13.40
2019-05-05T00:20:44.961Z,13.42
2019-05-05T00:23:14.682Z,13.32
2019-05-05T00:25:44.736Z,13.31
2019-05-05T00:28:14.612Z,13.43
2019-05-05T00:30:44.895Z,13.61
2019-05-05T00:33:14.686Z,13.37
2019-05-05T00:35:45.161Z,13.39
2019-05-05T00:38:15.101Z,13.66
2019-05-05T00:40:44.806Z,13.72
2019-05-05T00:43:14.849Z,13.69
2019-05-05T00:45:46.092Z,13.67
2019-05-05T00:48:30.601Z,13.70
2019-05-05T00:51:00.139Z,13.87
2019-05-05T00:53:29.669Z,13.71
2019-05-05T00:55:59.343Z,13.65
2019-05-05T00:58:30.732Z,13.76
2019-05-05T01:01:20.831Z,13.66
2019-05-05T01:03:50.686Z,13.73
2019-05-05T01:06:26.489Z,13.87
2019-05-05T01:08:55.909Z,13.88
2019-05-05T01:11:25.861Z,13.93
2019-05-05T01:13:55.731Z,13.84
2019-05-05T01:16:25.693Z,13.83
2019-05-05T01:18:55.635Z,13.82
2019-05-05T01:21:25.344Z,13.85
2019-05-05T01:23:54.988Z,13.88
2019-05-05T01:26:25.033Z,13.83
2019-05-05T01:28:56.318Z,13.95
2019-05-05T01:31:26.421Z,13.88
2019-05-05T01:34:07.480Z,13.98
2019-05-05T01:36:37.109Z,14.06
2019-05-05T01:39:31.881Z,14.06
2019-05-05T01:42:05.379Z,14.23
2019-05-05T01:44:35.296Z,14.13
2019-05-05T01:47:05.401Z,14.11
2019-05-05T01:49:35.058Z,14.01
2019-05-05T01:52:04.885Z,13.91
2019-05-05T01:54:35.263Z,13.74
2019-05-05T01:57:05.713Z,13.77
2019-05-05T01:59:35.649Z,13.94
2019-05-05T02:02:05.709Z,14.16
2019-05-05T02:04:35.464Z,14.12
2019-05-05T02:07:06.078Z,13.98
2019-05-05T02:09:35.763Z,13.99
2019-05-05T02:12:05.447Z,13.98
2019-05-05T02:14:35.373Z,14.02
2019-05-05T02:17:05.246Z,14.02
2019-05-05T02:19:35.144Z,14.03
2019-05-05T02:22:05.443Z,14.13
2019-05-05T02:24:35.467Z,14.26
2019-05-05T02:27:05.565Z,14.19
2019-05-05T02:29:57.379Z,14.07
2019-05-05T02:32:46.064Z,14.20
2019-05-05T02:35:16.895Z,14.34
2019-05-05T02:37:46.793Z,14.45
2019-05-05T02:40:17.063Z,14.31
2019-05-05T02:42:47.155Z,14.40
2019-05-05T02:45:40.670Z,14.50
2019-05-05T02:48:15.493Z,14.48
2019-05-05T02:51:00.090Z,14.24
2019-05-05T02:53:27.716Z,14.13
2019-05-05T02:56:01.734Z,14.16
2019-05-05T02:58:33.961Z,14.08
2019-05-05T03:01:30.056Z,14.08
2019-05-05T03:04:01.245Z,14.12
2019-05-05T03:06:30.746Z,13.99
2019-05-05T03:09:01.603Z,14.00
2019-05-05T03:11:34.344Z,14.01
2019-05-05T03:14:06.820Z,14.08
2019-05-05T03:16:38.766Z,13.92
2019-05-05T03:19:09.689Z,13.79
2019-05-05T03:21:39.853Z,13.70
2019-05-05T03:24:10.267Z,13.60
2019-05-05T03:26:40.842Z,13.46
2019-05-05T03:29:13.939Z,13.31
2019-05-05T03:31:45.868Z,13.22
2019-05-05T03:34:16.562Z,13.38
2019-05-05T03:36:46.786Z,13.38
2019-05-05T03:39:23.616Z,13.40
2019-05-05T03:42:13.935Z,13.39
2019-05-05T03:45:05.688Z,13.47
2019-05-05T03:47:36.529Z,13.53
2019-05-05T03:50:07.072Z,13.57
2019-05-05T03:52:36.950Z,13.76
2019-05-05T03:55:07.466Z,13.68
2019-05-05T03:57:37.491Z,13.61
2019-05-05T04:00:08.106Z,13.45
2019-05-05T04:02:54.741Z,13.56
2019-05-05T04:05:44.433Z,13.76
2019-05-05T04:08:14.533Z,13.80
2019-05-05T04:10:44.654Z,13.70
2019-05-05T04:13:16.626Z,13.73
2019-05-05T04:16:06.808Z,13.88
2019-05-05T04:18:41.201Z,13.84
2019-05-05T04:21:11.055Z,13.78
2019-05-05T04:23:40.689Z,13.71
2019-05-05T04:26:10.419Z,13.87
2019-05-05T04:28:40.130Z,14.00
2019-05-05T04:31:09.996Z,14.18
2019-05-05T04:33:39.616Z,14.31
2019-05-05T04:36:09.329Z,14.05
2019-05-05T04:38:38.853Z,13.85
2019-05-05T04:41:08.623Z,13.71
2019-05-05T04:43:38.033Z,13.73
2019-05-05T04:46:07.757Z,13.82
2019-05-05T04:48:55.736Z,14.00
2019-05-05T04:51:29.059Z,14.19
2019-05-05T04:54:26.286Z,14.40
2019-05-05T04:56:56.137Z,14.57
2019-05-05T04:59:25.729Z,14.76
2019-05-05T05:01:58.081Z,14.94
2019-05-05T05:04:49.780Z,15.14
2019-05-05T05:07:20.010Z,15.33
2019-05-05T05:09:49.644Z,15.46
2019-05-05T05:12:19.079Z,15.58
2019-05-05T05:14:48.789Z,15.74
2019-05-05T05:17:27.264Z,15.75
2019-05-05T05:19:56.875Z,15.82
2019-05-05T05:22:26.614Z,15.70
2019-05-05T05:24:56.133Z,15.56
2019-05-05T05:27:26.020Z,15.38
2019-05-05T05:29:55.821Z,15.40
2019-05-05T05:32:25.242Z,15.41
2019-05-05T05:34:54.742Z,15.49
2019-05-05T05:37:24.176Z,15.50
2019-05-05T05:40:03.948Z,15.11
2019-05-05T05:42:33.675Z,15.10
2019-05-05T05:45:21.062Z,15.13
2019-05-05T05:48:08.350Z,14.94
2019-05-05T05:50:44.199Z,14.96
2019-05-05T05:53:14.033Z,15.01
2019-05-05T05:55:44.817Z,15.07
2019-05-05T05:58:14.343Z,14.92
2019-05-05T06:00:44.452Z,14.86
2019-05-05T06:03:14.284Z,14.95
2019-05-05T06:05:43.821Z,14.91
2019-05-05T06:08:14.163Z,14.90
2019-05-05T06:10:44.492Z,14.90
2019-05-05T06:13:15.488Z,14.90
2019-05-05T06:15:45.236Z,14.93
2019-05-05T06:18:14.746Z,14.97
2019-05-05T06:20:44.679Z,15.06
2019-05-05T06:23:14.895Z,14.64
2019-05-05T06:25:44.983Z,14.73
2019-05-05T06:28:14.772Z,14.58
2019-05-05T06:30:44.524Z,14.64
2019-05-05T06:33:14.546Z,14.92
2019-05-05T06:35:44.514Z,15.01
2019-05-05T06:38:14.293Z,14.92
2019-05-05T06:41:11.925Z,15.05
2019-05-05T06:44:03.731Z,15.18
2019-05-05T06:46:53.745Z,15.05
2019-05-05T06:49:23.887Z,15.12
2019-05-05T06:51:54.675Z,15.33
2019-05-05T06:54:24.752Z,15.54
2019-05-05T06:56:54.389Z,15.78
2019-05-05T06:59:24.471Z,15.98
2019-05-05T07:01:54.071Z,16.14
2019-05-05T07:04:24.526Z,16.32
2019-05-05T07:06:57.045Z,16.43
2019-05-05T07:09:25.851Z,16.46
2019-05-05T07:11:55.677Z,16.52
2019-05-05T07:14:25.281Z,16.53
2019-05-05T07:16:55.157Z,16.49
2019-05-05T07:19:24.907Z,16.26
2019-05-05T07:21:54.931Z,16.18
2019-05-05T07:24:24.688Z,16.38
2019-05-05T07:26:54.454Z,16.60
2019-05-05T07:29:24.120Z,16.79
2019-05-05T07:31:54.576Z,16.85
2019-05-05T07:34:26.337Z,16.87
2019-05-05T07:36:55.984Z,16.91
2019-05-05T07:39:25.735Z,17.35
2019-05-05T07:41:55.448Z,17.76
2019-05-05T07:44:29.293Z,17.94
2019-05-05T07:46:56.123Z,18.08
2019-05-05T07:49:25.582Z,18.17
2019-05-05T07:51:55.429Z,18.15
2019-05-05T07:54:25.130Z,18.35
2019-05-05T07:56:54.822Z,18.67
2019-05-05T07:59:24.350Z,18.80
2019-05-05T08:01:54.758Z,19.02
2019-05-05T08:04:24.548Z,19.35
2019-05-05T08:06:54.374Z,19.69
2019-05-05T08:09:24.939Z,19.63
2019-05-05T08:11:54.628Z,19.78
2019-05-05T08:14:24.687Z,20.06
2019-05-05T08:17:12.027Z,20.25
2019-05-05T08:19:48.549Z,20.31
2019-05-05T08:22:18.439Z,20.68
2019-05-05T08:25:06.784Z,20.77
2019-05-05T08:27:45.631Z,20.61
2019-05-05T08:30:21.686Z,20.61
2019-05-05T08:32:51.602Z,20.75
2019-05-05T08:35:21.023Z,20.54
2019-05-05T08:37:50.563Z,20.39
2019-05-05T08:40:20.334Z,20.38
2019-05-05T08:42:50.000Z,20.70
2019-05-05T08:45:19.743Z,21.16
2019-05-05T08:47:49.557Z,21.43
2019-05-05T08:50:19.539Z,21.63
2019-05-05T08:52:49.260Z,22.17
2019-05-05T08:55:19.022Z,22.68
2019-05-05T08:57:48.953Z,23.54
2019-05-05T09:00:18.506Z,24.34
2019-05-05T09:02:48.362Z,24.69
2019-05-05T09:05:17.975Z,24.55
2019-05-05T09:07:47.595Z,24.32
2019-05-05T09:10:17.530Z,24.01
2019-05-05T09:12:47.297Z,24.33
2019-05-05T09:15:17.151Z,24.28
2019-05-05T09:17:46.964Z,24.44
2019-05-05T09:20:17.062Z,24.99
2019-05-05T09:22:46.854Z,26.24
2019-05-05T09:25:34.493Z,27.62
2019-05-05T09:28:38.375Z,27.91
2019-05-05T09:31:08.222Z,28.95
2019-05-05T09:33:38.011Z,30.36
2019-05-05T09:36:07.621Z,31.41
2019-05-05T09:38:37.051Z,31.46
2019-05-05T09:41:06.474Z,31.31
2019-05-05T09:43:36.021Z,30.72
2019-05-05T09:46:05.512Z,30.97
2019-05-05T09:48:35.038Z,31.80
2019-05-05T09:51:04.913Z,33.48
2019-05-05T09:53:34.763Z,34.84
2019-05-05T09:56:04.620Z,35.90
2019-05-05T09:58:34.848Z,36.75
2019-05-05T10:01:05.092Z,37.92
2019-05-05T10:03:34.754Z,38.66
2019-05-05T10:06:05.097Z,38.82
2019-05-05T10:08:35.192Z,39.56
2019-05-05T10:11:05.047Z,40.05
2019-05-05T10:13:34.994Z,40.06
2019-05-05T10:16:05.407Z,39.79
2019-05-05T10:18:35.991Z,38.34
2019-05-05T10:21:06.036Z,36.16
2019-05-05T10:23:37.672Z,35.17
2019-05-05T10:26:09.849Z,35.86
2019-05-05T10:28:39.756Z,37.16
2019-05-05T10:31:09.543Z,36.88
2019-05-05T10:33:42.398Z,37.11
2019-05-05T10:36:13.856Z,37.78
2019-05-05T10:38:46.208Z,38.43
2019-05-05T10:41:15.952Z,38.63
2019-05-05T10:43:45.677Z,39.09
2019-05-05T10:46:18.097Z,38.43
2019-05-05T10:48:47.919Z,38.31
2019-05-05T10:51:17.607Z,39.34
2019-05-05T10:53:47.296Z,39.92
2019-05-05T10:56:17.146Z,40.75
2019-05-05T10:58:47.309Z,40.85
2019-05-05T11:01:16.924Z,39.92
2019-05-05T11:03:46.652Z,39.56
2019-05-05T11:06:16.940Z,40.00
2019-05-05T11:08:46.750Z,39.59
2019-05-05T11:11:16.493Z,39.87
2019-05-05T11:13:47.131Z,39.80
2019-05-05T11:16:17.022Z,39.14
2019-05-05T11:18:47.130Z,39.19
2019-05-05T11:21:16.767Z,38.00
2019-05-05T11:23:46.383Z,36.88
2019-05-05T11:26:16.124Z,35.79
2019-05-05T11:28:45.533Z,35.27
2019-05-05T11:31:15.597Z,34.56
2019-05-05T11:34:19.497Z,34.10
2019-05-05T11:37:10.950Z,34.64
2019-05-05T11:39:40.608Z,35.07
2019-05-05T11:42:10.422Z,34.90
2019-05-05T11:44:40.114Z,35.84
2019-05-05T11:47:09.556Z,37.13
2019-05-05T11:49:39.380Z,38.42
2019-05-05T11:52:09.119Z,38.80
2019-05-05T11:54:38.840Z,38.10
2019-05-05T11:57:08.676Z,37.53
2019-05-05T11:59:38.348Z,36.98
2019-05-05T12:02:08.292Z,35.97
2019-05-05T12:04:37.800Z,35.01
2019-05-05T12:07:07.568Z,33.89
2019-05-05T12:09:44.452Z,33.16
2019-05-05T12:12:14.289Z,33.25
2019-05-05T12:14:44.033Z,33.18
2019-05-05T12:17:15.587Z,32.59
2019-05-05T12:19:45.125Z,31.80
2019-05-05T12:22:14.780Z,31.03
2019-05-05T12:24:46.704Z,30.20
2019-05-05T12:27:35.373Z,29.36
2019-05-05T12:30:08.498Z,29.01
2019-05-05T12:32:38.245Z,28.63
2019-05-05T12:35:08.224Z,28.67
2019-05-05T12:37:38.020Z,28.63
2019-05-05T12:40:08.123Z,28.91
2019-05-05T12:42:37.855Z,29.05
2019-05-05T12:45:11.093Z,29.30
2019-05-05T12:47:59.525Z,29.58
2019-05-05T12:50:29.195Z,29.20
2019-05-05T12:52:58.899Z,29.39
2019-05-05T12:55:40.568Z,30.68
2019-05-05T12:58:00.262Z,31.56
2019-05-05T13:00:30.234Z,30.55
2019-05-05T13:02:59.730Z,29.91
2019-05-05T13:05:29.474Z,28.95
2019-05-05T13:07:59.025Z,27.95
2019-05-05T13:10:28.559Z,27.54
2019-05-05T13:12:58.237Z,26.98
2019-05-05T13:15:27.698Z,26.08
2019-05-05T13:17:57.482Z,25.58
2019-05-05T13:20:39.169Z,25.33
2019-05-05T13:23:26.186Z,25.24
2019-05-05T13:26:14.946Z,25.23
2019-05-05T13:28:44.592Z,25.03
2019-05-05T13:31:14.415Z,24.65
2019-05-05T13:33:44.374Z,24.52
2019-05-05T13:36:14.012Z,24.37
2019-05-05T13:38:43.907Z,23.74
2019-05-05T13:41:13.670Z,23.53
2019-05-05T13:43:43.362Z,23.63
2019-05-05T13:46:24.580Z,23.78
2019-05-05T13:48:53.982Z,23.80
2019-05-05T13:51:24.127Z,24.10
2019-05-05T13:53:54.027Z,24.33
2019-05-05T13:56:24.619Z,24.01
2019-05-05T13:58:54.377Z,24.13
2019-05-05T14:01:24.103Z,24.13
2019-05-05T14:03:54.257Z,24.41
2019-05-05T14:06:25.302Z,24.36
2019-05-05T14:08:55.192Z,24.11
2019-05-05T14:11:25.006Z,24.31
2019-05-05T14:13:54.817Z,24.43
2019-05-05T14:16:24.588Z,24.51
2019-05-05T14:18:54.256Z,24.52
2019-05-05T14:21:24.477Z,24.39
2019-05-05T14:24:00.682Z,24.33
2019-05-05T14:26:32.298Z,24.23
2019-05-05T14:29:01.674Z,24.02
2019-05-05T14:31:34.823Z,23.92
2019-05-05T14:34:10.892Z,23.96
2019-05-05T14:37:11.148Z,23.78
2019-05-05T14:39:40.339Z,23.80
2019-05-05T14:42:10.074Z,23.75
2019-05-05T14:44:39.861Z,23.78
2019-05-05T14:47:09.589Z,23.65
2019-05-05T14:49:39.322Z,23.79
2019-05-05T14:52:09.042Z,23.91
2019-05-05T14:54:38.808Z,23.91
2019-05-05T14:57:08.589Z,23.97
2019-05-05T14:59:38.334Z,23.85
2019-05-05T15:02:07.856Z,23.74
2019-05-05T15:04:39.205Z,23.73
2019-05-05T15:07:17.946Z,23.68
2019-05-05T15:09:51.662Z,23.57
2019-05-05T15:12:34.603Z,23.42
2019-05-05T15:15:07.340Z,23.30
2019-05-05T15:17:36.394Z,23.21
2019-05-05T15:20:06.905Z,23.08
2019-05-05T15:22:36.407Z,23.09
2019-05-05T15:25:06.561Z,23.12
2019-05-05T15:27:36.078Z,23.04
2019-05-05T15:30:06.390Z,23.17
2019-05-05T15:32:36.149Z,23.31
2019-05-05T15:35:06.662Z,23.35
2019-05-05T15:37:36.620Z,23.35
2019-05-05T15:40:06.932Z,23.44
2019-05-05T15:42:36.654Z,23.55
2019-05-05T15:45:06.834Z,23.57
2019-05-05T15:47:36.638Z,23.44
2019-05-05T15:50:06.734Z,23.33
2019-05-05T15:52:36.789Z,23.37
2019-05-05T15:55:07.605Z,23.35
2019-05-05T15:57:37.490Z,23.32
2019-05-05T16:00:07.380Z,23.30
2019-05-05T16:02:37.188Z,23.21
2019-05-05T16:05:07.208Z,23.13
2019-05-05T16:07:37.101Z,22.84
2019-05-05T16:10:07.471Z,22.79
2019-05-05T16:12:39.764Z,22.80
2019-05-05T16:15:40.816Z,22.79
2019-05-05T16:18:19.183Z,22.54
2019-05-05T16:20:54.656Z,22.46
2019-05-05T16:23:27.454Z,22.43
2019-05-05T16:25:57.202Z,22.43
2019-05-05T16:28:26.798Z,22.30
2019-05-05T16:30:56.519Z,22.40
2019-05-05T16:33:26.385Z,22.37
2019-05-05T16:35:55.986Z,22.26
2019-05-05T16:38:25.669Z,21.85
2019-05-05T16:40:55.363Z,21.70
2019-05-05T16:43:24.883Z,21.68
2019-05-05T16:45:54.428Z,21.59
2019-05-05T16:48:25.793Z,21.67
2019-05-05T16:50:55.795Z,21.64
2019-05-05T16:53:35.632Z,21.73
2019-05-05T16:56:07.676Z,21.70
2019-05-05T16:58:37.175Z,21.61
2019-05-05T17:01:10.186Z,21.53
2019-05-05T17:03:39.953Z,21.61
2019-05-05T17:06:09.383Z,21.45
2019-05-05T17:08:38.930Z,21.21
2019-05-05T17:11:08.452Z,20.88
2019-05-05T17:13:46.388Z,20.75
2019-05-05T17:16:35.324Z,20.64
2019-05-05T17:19:30.375Z,20.58
2019-05-05T17:22:18.726Z,20.38
2019-05-05T17:24:48.363Z,20.25
2019-05-05T17:27:18.100Z,20.31
2019-05-05T17:29:47.916Z,20.30
2019-05-05T17:32:17.848Z,20.23
2019-05-05T17:34:47.589Z,20.03
2019-05-05T17:37:17.015Z,19.85
2019-05-05T17:39:54.467Z,19.67
2019-05-05T17:42:35.147Z,19.56
2019-05-05T17:45:14.959Z,19.42
2019-05-05T17:48:09.950Z,19.34
2019-05-05T17:50:57.979Z,19.23
2019-05-05T17:53:36.174Z,19.18
2019-05-05T17:56:06.907Z,19.12
2019-05-05T17:58:36.447Z,19.06
2019-05-05T18:01:06.105Z,19.08
2019-05-05T18:03:35.896Z,19.23
2019-05-05T18:06:36.797Z,19.16
2019-05-05T18:09:14.065Z,19.16
2019-05-05T18:12:07.400Z,19.15
2019-05-05T18:14:37.287Z,19.09
2019-05-05T18:17:07.159Z,19.01
2019-05-05T18:19:38.986Z,18.87
2019-05-05T18:22:08.794Z,18.83
2019-05-05T18:24:38.290Z,18.78
2019-05-05T18:27:08.018Z,18.64
2019-05-05T18:29:37.625Z,18.58
2019-05-05T18:32:07.158Z,18.50
2019-05-05T18:34:36.693Z,18.46
2019-05-05T18:37:06.125Z,18.47
2019-05-05T18:39:35.795Z,18.39
2019-05-05T18:42:13.991Z,18.40
2019-05-05T18:44:45.864Z,18.21
2019-05-05T18:47:19.532Z,18.26
2019-05-05T18:49:49.110Z,18.19
2019-05-05T18:52:18.856Z,18.03
2019-05-05T18:54:48.685Z,18.01
2019-05-05T18:57:18.420Z,17.93
2019-05-05T18:59:47.856Z,17.78
2019-05-05T19:02:35.483Z,17.75
2019-05-05T19:05:19.825Z,17.67
2019-05-05T19:08:14.386Z,17.72
2019-05-05T19:10:43.851Z,17.72
2019-05-05T19:13:13.780Z,17.69
2019-05-05T19:15:43.702Z,17.58
2019-05-05T19:18:14.053Z,17.55
2019-05-05T19:21:03.621Z,17.44
2019-05-05T19:23:33.798Z,17.50
2019-05-05T19:26:07.518Z,17.64
2019-05-05T19:28:43.909Z,17.51
2019-05-05T19:31:07.823Z,17.37
2019-05-05T19:33:37.505Z,17.32
2019-05-05T19:36:06.962Z,17.29
2019-05-05T19:38:36.747Z,17.32
2019-05-05T19:41:06.256Z,17.48
2019-05-05T19:43:37.654Z,17.42
2019-05-05T19:46:08.763Z,17.36
2019-05-05T19:48:38.538Z,17.36
2019-05-05T19:51:11.561Z,17.30
2019-05-05T19:53:41.368Z,17.28
2019-05-05T19:56:10.972Z,17.28
2019-05-05T19:58:40.652Z,17.30
2019-05-05T20:01:10.178Z,17.20
2019-05-05T20:03:44.150Z,17.29
2019-05-05T20:06:14.264Z,17.31
2019-05-05T20:08:44.392Z,17.28
2019-05-05T20:11:14.382Z,17.27
2019-05-05T20:13:44.623Z,17.17
2019-05-05T20:16:26.791Z,17.15
2019-05-05T20:18:56.463Z,17.08
2019-05-05T20:21:26.325Z,17.11
2019-05-05T20:23:56.063Z,17.17
2019-05-05T20:26:25.773Z,17.32
2019-05-05T20:28:55.622Z,17.50
2019-05-05T20:31:25.237Z,17.83
2019-05-05T20:34:04.907Z,18.09
2019-05-05T20:36:35.155Z,18.23
2019-05-05T20:39:06.707Z,18.32
2019-05-05T20:41:36.544Z,18.32
2019-05-05T20:44:08.853Z,18.34
2019-05-05T20:46:38.617Z,18.43
2019-05-05T20:49:08.320Z,18.48
2019-05-05T20:51:37.750Z,18.41
2019-05-05T20:54:07.688Z,18.40
2019-05-05T20:56:37.384Z,18.38
2019-05-05T20:59:06.795Z,18.44
2019-05-05T21:01:36.239Z,18.45
2019-05-05T21:04:05.903Z,18.48
2019-05-05T21:06:35.704Z,18.46
2019-05-05T21:09:07.185Z,18.48
2019-05-05T21:11:37.261Z,18.52
2019-05-05T21:14:07.052Z,18.49
2019-05-05T21:16:36.815Z,18.52
2019-05-05T21:19:06.338Z,18.55
2019-05-05T21:21:37.564Z,18.58
2019-05-05T21:24:07.815Z,18.58
2019-05-05T21:27:13.768Z,18.50
2019-05-05T21:29:43.464Z,18.54
2019-05-05T21:32:13.867Z,18.57
2019-05-05T21:34:44.415Z,18.59
2019-05-05T21:37:14.332Z,18.53
2019-05-05T21:39:45.470Z,18.42
2019-05-05T21:42:15.250Z,18.27
2019-05-05T21:44:44.960Z,18.12
2019-05-05T21:47:14.698Z,18.00
2019-05-05T21:49:44.370Z,18.01
2019-05-05T21:52:28.567Z,17.92
2019-05-05T21:55:08.337Z,17.77
2019-05-05T21:57:55.431Z,17.75
2019-05-05T22:00:44.238Z,17.73
2019-05-05T22:03:17.132Z,17.48
2019-05-05T22:05:46.746Z,17.44
2019-05-05T22:08:16.617Z,17.44
2019-05-05T22:10:46.019Z,17.36
2019-05-05T22:13:15.790Z,17.33
2019-05-05T22:15:45.587Z,17.29
2019-05-05T22:18:15.188Z,17.25
2019-05-05T22:20:49.640Z,17.35
2019-05-05T22:23:19.078Z,17.23
2019-05-05T22:25:48.786Z,17.01
2019-05-05T22:28:18.276Z,16.87
2019-05-05T22:30:48.052Z,16.90
2019-05-05T22:33:17.782Z,17.03
2019-05-05T22:35:48.922Z,16.94
2019-05-05T22:38:18.567Z,16.79
2019-05-05T22:40:51.207Z,16.69
2019-05-05T22:43:20.879Z,16.56
2019-05-05T22:45:50.520Z,16.49
2019-05-05T22:48:20.159Z,16.44
2019-05-05T22:50:50.014Z,16.39
2019-05-05T22:53:19.863Z,16.30
2019-05-05T22:55:49.378Z,16.12
2019-05-05T22:58:19.088Z,16.08
2019-05-05T23:00:49.064Z,16.15
2019-05-05T23:03:30.944Z,16.09
2019-05-05T23:06:04.640Z,15.85
2019-05-05T23:08:35.113Z,15.88
2019-05-05T23:11:04.997Z,15.78
2019-05-05T23:13:34.862Z,15.73
2019-05-05T23:16:14.773Z,15.81
2019-05-05T23:18:44.602Z,15.68
2019-05-05T23:21:31.349Z,15.40
2019-05-05T23:24:35.121Z,15.27
2019-05-05T23:27:04.743Z,15.25
2019-05-05T23:29:34.545Z,15.25
2019-05-05T23:32:04.357Z,15.19
2019-05-05T23:34:34.022Z,15.19
2019-05-05T23:37:04.306Z,14.92
2019-05-05T23:39:34.088Z,14.88
2019-05-05T23:42:04.138Z,14.83
2019-05-05T23:44:36.543Z,14.62
2019-05-05T23:47:06.074Z,14.38
2019-05-05T23:49:35.792Z,14.36
2019-05-05T23:52:05.672Z,14.56
2019-05-05T23:54:35.422Z,14.62
2019-05-05T23:57:05.228Z,14.57
2019-05-05T23:59:34.967Z,14.48
